Time;durP1;ratioP1;P1;durP2;ratioP2;P2;SDS_P1;SDS_P2;PMS_P1;PMS_P2;Temp;Humidity;BMP_temperature;BMP_pressure;BME280_temperature;BME280_humidity;BME280_pressure;Samples;Min_cycle;Max_cycle;Signal;HPM_P1;HPM_P2
2022/05/21 00:00:47;;;;;;;5.13;1.30;;;16.90;63.40;;;;;;5017523;28;20026;-64
2022/05/21 00:03:13;;;;;;;6.38;1.40;;;16.80;63.50;;;;;;5026472;28;20033;-64
2022/05/21 00:05:39;;;;;;;5.85;1.40;;;16.80;63.70;;;;;;5034638;28;20072;-64
2022/05/21 00:08:08;;;;;;;8.48;1.30;;;16.80;64.00;;;;;;5013289;28;20033;-64
2022/05/21 00:10:36;;;;;;;4.30;1.30;;;16.80;64.50;;;;;;5018260;28;20030;-64
2022/05/21 00:13:02;;;;;;;6.28;1.33;;;16.70;64.50;;;;;;5023453;28;20032;-64
2022/05/21 00:15:30;;;;;;;8.02;1.40;;;16.70;64.60;;;;;;5022148;28;20413;-64
2022/05/21 00:17:56;;;;;;;6.13;1.33;;;16.70;64.70;;;;;;5027564;28;20507;-64
2022/05/21 00:23:24;;;;;;;5.90;1.33;;;16.60;64.80;;;;;;5025366;28;20148;-64
2022/05/21 00:25:57;;;;;;;4.32;1.45;;;16.60;65.00;;;;;;5028606;28;20099;-64
2022/05/21 00:28:23;;;;;;;5.45;1.30;;;16.60;65.30;;;;;;5028331;28;20036;-64
2022/05/21 00:30:49;;;;;;;4.65;1.20;;;16.50;65.00;;;;;;5027911;28;20026;-64
2022/05/21 00:33:15;;;;;;;7.13;1.20;;;16.50;64.70;;;;;;5027532;28;20844;-64
2022/05/21 00:35:41;;;;;;;10.15;1.73;;;16.50;64.90;;;;;;5021501;28;20125;-64
2022/05/21 00:38:07;;;;;;;5.93;1.35;;;16.40;65.20;;;;;;5028483;28;20072;-64
2022/05/21 00:40:33;;;;;;;7.40;1.30;;;16.40;65.60;;;;;;5021494;28;20420;-64
2022/05/21 00:42:59;;;;;;;7.00;1.30;;;16.40;65.80;;;;;;5016356;28;20780;-64
2022/05/21 00:45:25;;;;;;;6.85;1.50;;;16.40;65.80;;;;;;5028978;28;20038;-64
2022/05/21 00:47:51;;;;;;;6.75;1.40;;;16.40;66.00;;;;;;5017120;28;20056;-64
2022/05/21 00:50:20;;;;;;;6.32;1.30;;;16.30;65.90;;;;;;5026185;28;20033;-64
2022/05/21 00:52:47;;;;;;;9.50;1.33;;;16.30;65.80;;;;;;5028031;28;20025;-64
2022/05/21 00:55:22;;;;;;;4.65;1.20;;;16.30;65.90;;;;;;5026697;28;20424;-64
2022/05/21 00:59:47;;;;;;;5.57;1.40;;;16.20;65.70;;;;;;5027705;28;20485;-64
2022/05/21 01:00:40;;;;;;;6.25;1.20;;;16.10;65.20;;;;;;5016935;28;20025;-64
2022/05/21 01:03:07;;;;;;;5.53;1.15;;;16.10;66.00;;;;;;5027223;28;20484;-64
2022/05/21 01:05:33;;;;;;;5.25;1.30;;;16.10;66.00;;;;;;5015284;28;20275;-64
2022/05/21 01:08:01;;;;;;;4.95;1.30;;;16.00;66.20;;;;;;5020217;28;20041;-64
2022/05/21 01:10:33;;;;;;;7.97;1.40;;;16.00;66.20;;;;;;5022548;28;20022;-64
2022/05/21 01:13:00;;;;;;;5.95;1.50;;;16.00;66.30;;;;;;5023807;28;20025;-64
2022/05/21 01:15:43;;;;;;;10.75;1.58;;;16.00;66.40;;;;;;5022690;28;20018;-64
2022/05/21 01:18:10;;;;;;;6.00;1.58;;;16.00;66.80;;;;;;5022445;28;20056;-64
2022/05/21 01:20:46;;;;;;;6.20;1.50;;;16.00;67.00;;;;;;5014589;28;20033;-64
2022/05/21 01:23:13;;;;;;;7.47;1.50;;;15.90;67.30;;;;;;5027410;28;20038;-64
2022/05/21 01:25:40;;;;;;;7.05;1.50;;;15.90;67.40;;;;;;5025780;28;20033;-64
2022/05/21 01:28:12;;;;;;;6.50;1.60;;;15.90;67.60;;;;;;5027933;28;20033;-64
2022/05/21 01:30:44;;;;;;;4.97;1.30;;;15.90;67.50;;;;;;5028487;28;20029;-64
2022/05/21 01:33:13;;;;;;;6.68;1.40;;;15.90;67.60;;;;;;5020021;28;20036;-64
2022/05/21 01:35:40;;;;;;;7.43;1.77;;;15.90;67.40;;;;;;5030183;28;20562;-64
2022/05/21 01:38:07;;;;;;;6.93;1.70;;;15.90;67.30;;;;;;5028376;28;20519;-64
2022/05/21 01:40:34;;;;;;;7.68;1.92;;;15.80;67.30;;;;;;5025652;28;20034;-64
2022/05/21 01:45:44;;;;;;;5.10;1.75;;;15.80;67.80;;;;;;5022831;28;20557;-64
2022/05/21 01:48:10;;;;;;;6.68;1.50;;;15.80;67.60;;;;;;5020286;28;20029;-64
2022/05/21 01:50:38;;;;;;;5.03;1.70;;;15.70;67.20;;;;;;5028843;28;20033;-64
2022/05/21 01:53:04;;;;;;;6.35;1.55;;;15.60;67.50;;;;;;5026622;28;20079;-64
2022/05/21 01:55:30;;;;;;;6.72;1.63;;;15.50;67.70;;;;;;5017873;28;20034;-64
2022/05/21 01:57:56;;;;;;;7.72;1.80;;;15.50;68.00;;;;;;5026665;28;20031;-64
2022/05/21 02:00:22;;;;;;;7.00;1.92;;;15.60;67.60;;;;;;5023355;28;20116;-64
2022/05/21 02:02:48;;;;;;;7.70;1.60;;;15.50;68.40;;;;;;5026640;28;20036;-64
2022/05/21 02:05:13;;;;;;;6.90;1.50;;;15.50;68.20;;;;;;5030223;28;20029;-64
2022/05/21 02:07:39;;;;;;;6.15;1.50;;;15.50;68.00;;;;;;5026934;28;20204;-65
2022/05/21 02:10:06;;;;;;;6.40;1.50;;;15.40;68.10;;;;;;5027024;28;20084;-64
2022/05/21 02:12:32;;;;;;;5.65;1.60;;;15.30;68.30;;;;;;5026667;28;20468;-64
2022/05/21 02:14:58;;;;;;;4.57;1.52;;;15.40;68.60;;;;;;5025908;28;20042;-64
2022/05/21 02:17:24;;;;;;;8.00;1.77;;;15.30;68.80;;;;;;5027720;28;20067;-64
2022/05/21 02:19:50;;;;;;;6.35;1.65;;;15.30;68.90;;;;;;5018415;28;20034;-64
2022/05/21 02:22:17;;;;;;;5.07;1.70;;;15.30;69.00;;;;;;5019266;28;20103;-64
2022/05/21 02:24:43;;;;;;;8.35;1.90;;;15.40;69.20;;;;;;5022653;28;20026;-64
2022/05/21 02:27:11;;;;;;;5.32;1.70;;;15.30;69.30;;;;;;5014222;28;20108;-65
2022/05/21 02:29:38;;;;;;;4.13;1.40;;;15.30;69.10;;;;;;5017586;28;20655;-64
2022/05/21 02:32:04;;;;;;;6.30;1.83;;;15.30;69.20;;;;;;5022604;28;20041;-64
2022/05/21 02:34:30;;;;;;;4.50;1.40;;;15.30;69.40;;;;;;5028537;28;20056;-64
2022/05/21 02:39:41;;;;;;;5.55;1.63;;;15.30;69.60;;;;;;5027156;28;20052;-64
2022/05/21 02:42:43;;;;;;;6.28;1.42;;;15.30;69.10;;;;;;5023617;28;20059;-64
2022/05/21 02:44:53;;;;;;;4.32;1.45;;;15.20;68.80;;;;;;5025091;28;20142;-64
2022/05/21 02:47:19;;;;;;;4.82;1.45;;;15.20;69.20;;;;;;5028001;28;20069;-64
2022/05/21 02:49:44;;;;;;;5.32;1.67;;;15.10;69.40;;;;;;5018769;28;20041;-64
2022/05/21 02:52:10;;;;;;;9.70;1.80;;;15.10;69.00;;;;;;5018379;28;20022;-64
2022/05/21 02:54:35;;;;;;;6.55;1.77;;;15.10;69.90;;;;;;5027361;28;20028;-64
2022/05/21 02:57:01;;;;;;;4.70;1.63;;;15.10;69.70;;;;;;5020512;28;20077;-64
2022/05/21 02:59:29;;;;;;;5.65;1.70;;;15.10;69.50;;;;;;5026772;28;20033;-64
2022/05/21 03:01:55;;;;;;;9.05;1.90;;;15.00;69.70;;;;;;5024517;28;20030;-64
2022/05/21 03:04:21;;;;;;;5.93;1.80;;;15.00;69.80;;;;;;5026427;28;20032;-64
2022/05/21 03:06:47;;;;;;;6.88;1.50;;;15.00;69.80;;;;;;5025830;28;20054;-64
2022/05/21 03:11:57;;;;;;;6.13;1.88;;;15.00;69.30;;;;;;5021472;28;20064;-64
2022/05/21 03:14:23;;;;;;;6.93;1.75;;;14.90;69.30;;;;;;5020353;28;20401;-64
2022/05/21 03:16:49;;;;;;;5.28;1.60;;;14.80;69.30;;;;;;5018611;28;20030;-64
2022/05/21 03:19:15;;;;;;;5.40;1.70;;;14.80;69.70;;;;;;5026347;28;20026;-64
2022/05/21 03:21:40;;;;;;;5.68;1.50;;;14.70;70.00;;;;;;5018194;28;20029;-64
2022/05/21 03:24:06;;;;;;;5.70;1.63;;;14.70;70.10;;;;;;5027435;28;20063;-64
2022/05/21 03:26:32;;;;;;;9.82;2.42;;;14.70;70.40;;;;;;5031033;28;20033;-64
2022/05/21 03:28:58;;;;;;;6.32;1.80;;;14.70;70.90;;;;;;5022182;28;20030;-64
2022/05/21 03:31:24;;;;;;;8.35;2.00;;;14.70;71.20;;;;;;5024523;28;20018;-64
2022/05/21 03:33:50;;;;;;;6.40;2.00;;;14.70;70.90;;;;;;5028125;28;20072;-65
2022/05/21 03:36:15;;;;;;;9.85;2.63;;;14.70;70.50;;;;;;5028856;28;20503;-64
2022/05/21 03:38:41;;;;;;;8.02;2.08;;;14.60;70.20;;;;;;5015752;28;20079;-64
2022/05/21 03:41:07;;;;;;;5.20;1.90;;;14.60;70.20;;;;;;5029357;28;20052;-64
2022/05/21 03:43:32;;;;;;;7.20;2.05;;;14.50;70.50;;;;;;5028899;28;20029;-64
2022/05/21 03:45:59;;;;;;;8.07;2.08;;;14.60;70.60;;;;;;5027727;28;20505;-64
2022/05/21 03:48:25;;;;;;;10.98;2.15;;;14.50;70.80;;;;;;5025056;28;20033;-64
2022/05/21 03:50:50;;;;;;;7.75;2.30;;;14.50;71.00;;;;;;5024357;28;20093;-64
2022/05/21 03:53:16;;;;;;;8.52;2.03;;;14.50;71.10;;;;;;5029180;28;20542;-64
2022/05/21 03:55:44;;;;;;;8.10;1.80;;;14.50;71.40;;;;;;5022127;28;20041;-64
2022/05/21 03:58:10;;;;;;;9.45;2.25;;;14.50;70.10;;;;;;5028626;28;20026;-64
2022/05/21 04:00:38;;;;;;;5.68;2.00;;;14.40;70.80;;;;;;5028582;28;20037;-64
2022/05/21 04:03:04;;;;;;;8.25;1.90;;;14.50;70.80;;;;;;5028835;28;20029;-65
2022/05/21 04:05:30;;;;;;;6.80;1.95;;;14.40;70.80;;;;;;5034731;28;20156;-64
2022/05/21 04:07:56;;;;;;;6.55;1.80;;;14.40;70.80;;;;;;5028683;28;20516;-65
2022/05/21 04:10:22;;;;;;;7.97;2.17;;;14.40;70.70;;;;;;5026618;28;20101;-65
2022/05/21 04:12:47;;;;;;;6.82;2.10;;;14.40;70.60;;;;;;5026207;28;20036;-65
2022/05/21 04:15:14;;;;;;;8.13;1.95;;;14.50;70.70;;;;;;5028824;28;20033;-65
2022/05/21 04:17:40;;;;;;;7.45;1.88;;;14.40;70.60;;;;;;5024498;28;20041;-65
2022/05/21 04:20:09;;;;;;;6.18;1.88;;;14.40;70.80;;;;;;5019188;28;20052;-65
2022/05/21 04:22:35;;;;;;;7.45;2.05;;;14.50;71.30;;;;;;5028175;28;20064;-65
2022/05/21 04:25:01;;;;;;;6.30;1.83;;;14.50;71.30;;;;;;5022565;28;20105;-65
2022/05/21 04:27:26;;;;;;;6.22;1.83;;;14.50;70.90;;;;;;5024449;28;20042;-65
2022/05/21 04:29:52;;;;;;;6.10;1.65;;;14.40;70.80;;;;;;5025284;28;20037;-65
2022/05/21 04:32:19;;;;;;;7.90;1.90;;;14.40;70.70;;;;;;5015545;28;20532;-64
2022/05/21 04:34:45;;;;;;;5.35;1.55;;;14.40;70.60;;;;;;5026693;28;20136;-64
2022/05/21 04:37:11;;;;;;;5.75;1.92;;;14.40;70.50;;;;;;5016632;28;20022;-65
2022/05/21 04:39:37;;;;;;;7.45;2.17;;;14.30;70.50;;;;;;5027832;28;20033;-65
2022/05/21 04:42:03;;;;;;;7.05;2.20;;;14.30;70.70;;;;;;5023885;28;20029;-65
2022/05/21 04:44:34;;;;;;;7.13;2.00;;;14.30;71.10;;;;;;5020937;28;20061;-64
2022/05/21 04:47:00;;;;;;;7.70;2.15;;;14.40;71.70;;;;;;5017395;28;20041;-64
2022/05/21 04:49:26;;;;;;;7.35;1.60;;;14.40;71.90;;;;;;5017545;28;20073;-66
2022/05/21 04:51:52;;;;;;;5.18;1.60;;;14.40;71.70;;;;;;5023742;28;20141;-65
2022/05/21 04:54:18;;;;;;;8.48;1.90;;;14.40;71.70;;;;;;5031062;28;20073;-65
2022/05/21 04:56:43;;;;;;;6.22;1.70;;;14.40;71.70;;;;;;5032180;28;20069;-65
2022/05/21 04:59:10;;;;;;;5.43;1.50;;;14.40;72.00;;;;;;5027462;28;20014;-65
2022/05/21 05:01:37;;;;;;;5.75;1.70;;;14.50;72.20;;;;;;5021994;28;20034;-65
2022/05/21 05:04:02;;;;;;;6.05;2.05;;;14.50;72.40;;;;;;5025503;28;20476;-65
2022/05/21 05:06:28;;;;;;;5.05;1.80;;;14.50;72.50;;;;;;5026431;28;20053;-66
2022/05/21 05:08:54;;;;;;;5.20;1.70;;;14.60;72.50;;;;;;5028247;28;20053;-66
2022/05/21 05:11:19;;;;;;;5.55;1.67;;;14.60;72.60;;;;;;5028983;28;20583;-67
2022/05/21 05:13:45;;;;;;;5.72;1.70;;;14.60;72.70;;;;;;5025468;28;20669;-67
2022/05/21 05:16:11;;;;;;;6.32;1.90;;;14.70;72.70;;;;;;5030038;28;20118;-67
2022/05/21 05:18:36;;;;;;;7.88;2.20;;;14.70;72.70;;;;;;5024159;28;20033;-67
2022/05/21 05:21:02;;;;;;;6.38;2.30;;;14.80;73.00;;;;;;5023518;28;20042;-66
2022/05/21 05:23:28;;;;;;;7.90;2.30;;;14.80;73.10;;;;;;5030876;28;20040;-65
2022/05/21 05:25:54;;;;;;;9.95;2.38;;;14.90;73.30;;;;;;5025056;28;20025;-65
2022/05/21 05:28:22;;;;;;;6.55;2.30;;;14.90;73.50;;;;;;5027868;28;20041;-65
2022/05/21 05:30:48;;;;;;;7.45;2.33;;;15.00;73.80;;;;;;5039791;28;20033;-65
2022/05/21 05:33:15;;;;;;;5.55;2.20;;;15.00;74.00;;;;;;5022631;28;20037;-65
2022/05/21 05:35:41;;;;;;;9.50;2.50;;;15.10;74.00;;;;;;5025652;28;20024;-66
2022/05/21 05:38:12;;;;;;;10.07;3.00;;;15.20;73.80;;;;;;5022866;28;20033;-65
2022/05/21 05:40:41;;;;;;;9.93;2.30;;;15.30;73.60;;;;;;5022080;28;20017;-65
2022/05/21 05:43:07;;;;;;;11.85;2.70;;;15.30;73.60;;;;;;5022423;28;20080;-65
2022/05/21 05:45:33;;;;;;;10.48;2.65;;;15.50;73.80;;;;;;5022390;28;20073;-65
2022/05/21 05:47:58;;;;;;;9.65;2.80;;;15.50;74.00;;;;;;5011661;28;20049;-65
2022/05/21 05:50:24;;;;;;;12.38;2.35;;;15.60;74.30;;;;;;5014538;28;20434;-65
2022/05/21 05:52:50;;;;;;;7.53;2.35;;;15.70;74.10;;;;;;5013388;28;20037;-65
2022/05/21 05:55:16;;;;;;;12.65;2.78;;;15.90;72.90;;;;;;5016609;28;20041;-65
2022/05/21 05:57:42;;;;;;;10.30;2.47;;;15.90;73.70;;;;;;5018219;28;20029;-65
2022/05/21 06:00:09;;;;;;;12.38;2.50;;;16.10;73.50;;;;;;5028172;28;20056;-65
2022/05/21 06:05:24;;;;;;;10.00;2.33;;;16.40;73.10;;;;;;5014893;28;20032;-65
2022/05/21 06:07:51;;;;;;;;;;;16.60;73.20;;;;;;5013247;28;20037;-65
2022/05/21 06:10:30;;;;;;;13.80;2.83;;;16.80;72.90;;;;;;5019827;28;21980;-66
2022/05/21 06:12:56;;;;;;;12.52;2.60;;;17.00;73.90;;;;;;5011927;28;20049;-66
2022/05/21 06:15:23;;;;;;;15.55;3.10;;;17.20;73.50;;;;;;5016846;28;20068;-66
2022/05/21 06:17:50;;;;;;;14.75;2.97;;;17.40;73.70;;;;;;5026896;28;20105;-66
2022/05/21 06:20:18;;;;;;;13.70;2.80;;;17.60;73.70;;;;;;5028910;28;20064;-66
2022/05/21 06:22:47;;;;;;;14.15;2.90;;;17.80;73.20;;;;;;5027141;28;20037;-66
2022/05/21 06:25:17;;;;;;;15.50;2.72;;;18.00;73.00;;;;;;5023617;28;20022;-66
2022/05/21 06:27:44;;;;;;;12.07;2.75;;;18.10;72.30;;;;;;5026256;28;20053;-66
2022/05/21 06:30:11;;;;;;;22.08;5.63;;;18.20;72.80;;;;;;5026785;28;20511;-66
2022/05/21 06:32:36;;;;;;;16.85;4.75;;;18.40;71.30;;;;;;5014117;28;20026;-66
2022/05/21 06:35:04;;;;;;;16.63;3.45;;;18.60;70.20;;;;;;5030120;28;20477;-66
2022/05/21 06:37:30;;;;;;;10.73;3.33;;;19.10;69.00;;;;;;5025662;28;20059;-66
2022/05/21 06:39:56;;;;;;;14.15;3.67;;;19.70;66.70;;;;;;5025670;28;20033;-66
2022/05/21 06:42:21;;;;;;;14.68;4.13;;;20.20;64.40;;;;;;5012837;28;20088;-66
2022/05/21 06:44:47;;;;;;;11.05;3.28;;;20.90;60.90;;;;;;5018010;28;20061;-66
2022/05/21 06:47:13;;;;;;;11.77;3.80;;;21.60;57.60;;;;;;5031109;28;20496;-66
2022/05/21 06:49:38;;;;;;;9.57;3.72;;;22.20;54.50;;;;;;5030180;28;20025;-66
2022/05/21 06:52:05;;;;;;;10.20;3.50;;;22.60;52.70;;;;;;5030569;28;20037;-66
2022/05/21 06:54:31;;;;;;;10.82;4.05;;;23.20;50.20;;;;;;5029794;28;20428;-67
2022/05/21 06:56:56;;;;;;;9.65;3.90;;;23.70;47.60;;;;;;5030390;28;20477;-66
2022/05/21 06:59:23;;;;;;;10.68;3.88;;;23.90;45.70;;;;;;5023831;28;20034;-67
2022/05/21 07:01:48;;;;;;;12.05;4.35;;;23.80;46.50;;;;;;5022270;28;20026;-67
2022/05/21 07:04:14;;;;;;;12.13;4.68;;;24.30;45.70;;;;;;5027275;28;20044;-66
2022/05/21 07:09:27;;;;;;;14.13;5.00;;;23.40;48.30;;;;;;5023000;28;20032;-67
2022/05/21 07:11:53;;;;;;;9.38;4.10;;;21.90;53.20;;;;;;5023122;28;20055;-66
2022/05/21 07:14:19;;;;;;;12.68;4.57;;;22.00;53.50;;;;;;5028385;28;20491;-66
2022/05/21 07:16:45;;;;;;;10.82;4.60;;;23.00;50.50;;;;;;5024068;28;21656;-66
2022/05/21 07:19:11;;;;;;;9.15;4.43;;;22.90;50.30;;;;;;5025289;28;20561;-65
2022/05/21 07:21:37;;;;;;;9.10;4.30;;;22.80;51.10;;;;;;5020812;28;20029;-65
2022/05/21 07:24:04;;;;;;;12.52;4.72;;;22.00;53.70;;;;;;5029923;28;20473;-66
2022/05/21 07:26:29;;;;;;;11.10;4.30;;;21.90;54.80;;;;;;5027116;28;20041;-65
2022/05/21 07:28:57;;;;;;;9.18;4.53;;;22.30;53.30;;;;;;5030448;28;20415;-65
2022/05/21 07:31:23;;;;;;;7.53;4.93;;;22.50;53.00;;;;;;5028485;28;20056;-65
2022/05/21 07:33:48;;;;;;;10.65;4.68;;;22.70;53.20;;;;;;5027186;28;20674;-65
2022/05/21 07:36:14;;;;;;;10.80;4.32;;;23.00;52.90;;;;;;5020378;28;20087;-65
2022/05/21 07:38:40;;;;;;;12.25;4.40;;;23.20;52.40;;;;;;5028806;28;20401;-65
2022/05/21 07:41:07;;;;;;;13.75;4.15;;;23.30;52.40;;;;;;5024792;28;20056;-65
2022/05/21 07:43:34;;;;;;;11.68;4.90;;;23.50;51.90;;;;;;5026403;28;20033;-64
2022/05/21 07:46:01;;;;;;;9.80;4.63;;;23.50;51.10;;;;;;5027532;28;20136;-65
2022/05/21 07:48:28;;;;;;;10.88;4.00;;;23.40;50.90;;;;;;5028106;28;20033;-65
2022/05/21 07:50:59;;;;;;;10.30;4.43;;;23.30;50.70;;;;;;5024754;28;20063;-65
2022/05/21 07:53:35;;;;;;;11.05;4.22;;;23.10;52.50;;;;;;5031857;28;20055;-65
2022/05/21 07:56:00;;;;;;;13.98;4.18;;;22.70;52.20;;;;;;5028327;28;20493;-65
2022/05/21 07:58:29;;;;;;;14.10;4.85;;;22.50;52.90;;;;;;5033775;28;20091;-65
2022/05/21 08:00:55;;;;;;;12.27;4.50;;;22.40;53.70;;;;;;5028213;28;20414;-65
2022/05/21 08:03:21;;;;;;;13.50;4.60;;;22.60;52.70;;;;;;5030315;28;20033;-65
2022/05/21 08:05:48;;;;;;;15.80;4.53;;;22.60;53.60;;;;;;5031032;28;20044;-65
2022/05/21 08:08:14;;;;;;;13.45;4.53;;;22.70;53.40;;;;;;5030062;28;20408;-65
2022/05/21 08:10:42;;;;;;;10.63;4.00;;;22.50;53.60;;;;;;5019590;28;20481;-66
2022/05/21 08:13:10;;;;;;;13.25;4.07;;;22.60;53.90;;;;;;5016696;28;20073;-66
2022/05/21 08:15:36;;;;;;;11.85;4.38;;;22.60;53.80;;;;;;5016675;28;20029;-65
2022/05/21 08:18:04;;;;;;;12.82;4.18;;;22.80;53.50;;;;;;5025528;28;20021;-65
2022/05/21 08:20:30;;;;;;;14.55;3.60;;;23.00;53.00;;;;;;5016637;28;20081;-66
2022/05/21 08:28:26;;;;;;;14.85;4.05;;;23.20;52.10;;;;;;5028431;28;20578;-66
2022/05/21 08:30:52;;;;;;;9.80;3.53;;;23.30;50.60;;;;;;5025939;28;20057;-65
2022/05/21 08:33:19;;;;;;;14.43;3.90;;;23.30;51.50;;;;;;5014326;28;20085;-66
2022/05/21 08:35:47;;;;;;;13.40;4.30;;;23.60;51.20;;;;;;5033435;28;20022;-66
2022/05/21 08:38:13;;;;;;;14.02;3.90;;;23.60;52.00;;;;;;5017637;28;20034;-66
2022/05/21 08:41:03;;;;;;;10.18;3.50;;;23.90;51.60;;;;;;5017062;28;20033;-66
2022/05/21 08:43:53;;;;;;;11.43;3.42;;;24.00;50.70;;;;;;5027228;28;20030;-66
2022/05/21 08:46:53;;;;;;;12.65;3.88;;;24.20;50.40;;;;;;5016987;28;20042;-66
2022/05/21 08:49:25;;;;;;;13.82;3.60;;;24.50;49.20;;;;;;5017307;28;20032;-66
2022/05/21 08:52:32;;;;;;;11.88;3.38;;;24.70;48.90;;;;;;5017640;28;20525;-66
2022/05/21 08:55:00;;;;;;;11.82;3.50;;;25.00;48.00;;;;;;5027361;28;20045;-66
2022/05/21 08:57:36;;;;;;;10.05;3.20;;;25.20;47.10;;;;;;5018663;28;20033;-66
2022/05/21 09:00:12;;;;;;;13.18;3.30;;;25.40;46.80;;;;;;5024612;28;20022;-66
2022/05/21 09:02:38;;;;;;;12.55;2.90;;;25.70;45.90;;;;;;5014603;28;20029;-66
2022/05/21 09:05:07;;;;;;;9.65;2.92;;;25.90;44.90;;;;;;5031612;28;20474;-66
2022/05/21 09:08:08;;;;;;;12.82;2.40;;;26.00;44.00;;;;;;5021061;28;20168;-66
2022/05/21 09:10:39;;;;;;;17.65;2.78;;;26.20;41.80;;;;;;5016938;28;20060;-66
2022/05/21 09:13:25;;;;;;;10.82;2.85;;;26.40;41.80;;;;;;5016461;28;20552;-66
2022/05/21 09:18:35;;;;;;;10.85;2.33;;;26.60;40.00;;;;;;5028408;28;20036;-66
2022/05/21 09:21:08;;;;;;;11.95;2.22;;;26.80;40.00;;;;;;5012177;28;20029;-66
2022/05/21 09:23:58;;;;;;;11.20;2.42;;;27.00;39.10;;;;;;5014715;28;20030;-66
2022/05/21 09:26:26;;;;;;;9.65;2.80;;;27.20;38.60;;;;;;5009372;28;20100;-67
2022/05/21 09:29:09;;;;;;;11.70;2.85;;;27.30;38.80;;;;;;5016413;28;20026;-66
2022/05/21 09:31:35;;;;;;;10.07;2.28;;;27.50;38.50;;;;;;5021688;28;20167;-66
2022/05/21 09:34:15;;;;;;;11.00;2.60;;;27.70;38.60;;;;;;5031894;28;20104;-66
2022/05/21 09:36:40;;;;;;;12.35;2.72;;;28.00;38.10;;;;;;5028444;28;20095;-66
2022/05/21 09:39:06;;;;;;;13.30;2.72;;;28.30;37.50;;;;;;5020341;28;20492;-66
2022/05/21 09:41:32;;;;;;;8.63;2.63;;;28.50;37.00;;;;;;5029079;28;20033;-66
2022/05/21 09:47:14;;;;;;;8.83;2.30;;;29.00;35.90;;;;;;5018185;28;20061;-67
2022/05/21 09:49:41;;;;;;;10.60;2.33;;;29.30;35.60;;;;;;5018568;28;20092;-66
2022/05/21 09:52:21;;;;;;;10.85;2.38;;;29.60;34.80;;;;;;5025101;28;20038;-67
2022/05/21 09:54:47;;;;;;;;;;;29.80;34.50;;;;;;5016870;28;20021;-67
2022/05/21 09:57:30;;;;;;;12.45;2.55;;;30.00;33.60;;;;;;5026787;28;19920;-66
2022/05/21 10:00:15;;;;;;;9.82;2.50;;;30.20;33.30;;;;;;5025404;28;20045;-67
2022/05/21 10:02:43;;;;;;;9.80;2.78;;;30.40;33.10;;;;;;5025192;28;20033;-67
2022/05/21 10:05:32;;;;;;;11.73;3.83;;;30.60;32.70;;;;;;5031687;28;20030;-67
2022/05/21 10:11:10;;;;;;;9.38;2.33;;;31.10;30.50;;;;;;5024932;28;20554;-64
2022/05/21 10:13:47;;;;;;;11.82;2.47;;;31.20;30.90;;;;;;5023212;28;20026;-65
2022/05/21 10:16:50;;;;;;;14.00;2.60;;;31.30;30.50;;;;;;5023953;28;20030;-65
2022/05/21 10:19:30;;;;;;;11.82;2.28;;;31.60;30.80;;;;;;5031089;28;20029;-65
2022/05/21 10:22:29;;;;;;;9.48;2.22;;;31.90;30.10;;;;;;5030107;28;20099;-66
2022/05/21 10:25:13;;;;;;;10.73;2.38;;;32.30;29.50;;;;;;5019921;28;20042;-64
2022/05/21 10:28:24;;;;;;;9.18;2.30;;;32.60;29.10;;;;;;5019081;28;20025;-65
2022/05/21 10:31:05;;;;;;;9.07;2.10;;;33.00;28.80;;;;;;5022404;28;20111;-65
2022/05/21 10:33:59;;;;;;;11.27;2.20;;;33.40;27.60;;;;;;5033272;28;20029;-65
2022/05/21 10:36:37;;;;;;;9.38;1.70;;;33.80;27.30;;;;;;5017143;28;20026;-65
2022/05/21 10:39:12;;;;;;;8.20;2.10;;;34.20;25.20;;;;;;5014640;28;20026;-65
2022/05/21 10:42:11;;;;;;;8.05;2.08;;;34.20;25.50;;;;;;5017402;28;20041;-64
2022/05/21 10:45:16;;;;;;;10.23;1.98;;;34.60;25.80;;;;;;5031398;28;20060;-65
2022/05/21 10:47:48;;;;;;;7.07;1.85;;;35.10;25.20;;;;;;5028715;28;20052;-65
2022/05/21 10:50:22;;;;;;;9.30;1.80;;;35.50;24.40;;;;;;5029861;28;20036;-65
2022/05/21 10:52:54;;;;;;;7.18;1.60;;;36.00;23.90;;;;;;5030689;28;20077;-65
2022/05/21 10:55:31;;;;;;;7.85;1.90;;;36.40;23.70;;;;;;5032642;28;20060;-64
2022/05/21 10:58:08;;;;;;;8.77;2.05;;;36.90;23.00;;;;;;5028388;28;20033;-65
2022/05/21 11:01:09;;;;;;;7.25;1.95;;;37.10;22.50;;;;;;5019272;28;20057;-66
2022/05/21 11:04:07;;;;;;;8.77;2.05;;;37.40;21.80;;;;;;4990525;28;20441;-66
2022/05/21 11:06:41;;;;;;;7.05;1.60;;;37.60;21.90;;;;;;4942903;29;20055;-65
2022/05/21 11:09:23;;;;;;;10.32;1.88;;;37.70;22.10;;;;;;4947128;29;20078;-65
2022/05/21 11:12:11;;;;;;;7.90;1.90;;;37.80;21.30;;;;;;4949814;28;20148;-66
2022/05/21 11:15:08;;;;;;;8.98;1.77;;;38.00;21.30;;;;;;4945712;29;20043;-67
2022/05/21 11:17:43;;;;;;;5.60;1.60;;;38.50;21.40;;;;;;4945711;28;20126;-66
2022/05/21 11:20:22;;;;;;;7.43;1.60;;;38.90;21.10;;;;;;4948890;29;20371;-67
2022/05/21 11:23:20;;;;;;;7.20;1.70;;;39.20;21.10;;;;;;4942552;28;20042;-66
2022/05/21 11:25:55;;;;;;;7.00;1.50;;;39.60;20.90;;;;;;4943325;28;20036;-65
2022/05/21 11:28:45;;;;;;;8.05;1.73;;;39.90;20.50;;;;;;4948246;29;20066;-67
2022/05/21 11:37:19;;;;;;;6.93;1.70;;;40.00;20.10;;;;;;4942003;28;20126;-67
2022/05/21 11:39:38;;;;;;;5.88;1.67;;;40.60;19.60;;;;;;4945518;28;20107;-66
2022/05/21 11:42:03;;;;;;;6.38;1.80;;;40.10;20.20;;;;;;4981091;28;20547;-67
2022/05/21 11:45:01;;;;;;;5.65;1.80;;;40.50;20.00;;;;;;5023832;28;20045;-66
2022/05/21 11:47:27;;;;;;;7.32;1.73;;;41.00;18.80;;;;;;5024249;28;20120;-66
2022/05/21 11:50:01;;;;;;;6.00;1.67;;;41.00;19.30;;;;;;5024285;28;20612;-66
2022/05/21 11:52:27;;;;;;;6.10;1.52;;;41.10;18.90;;;;;;5024814;28;20047;-66
2022/05/21 11:55:17;;;;;;;9.52;1.70;;;41.30;18.90;;;;;;5020704;28;20021;-66
2022/05/21 11:57:48;;;;;;;5.70;1.45;;;41.20;18.90;;;;;;5025375;28;20061;-66
2022/05/21 12:00:24;;;;;;;8.25;1.70;;;40.40;19.70;;;;;;5020801;28;20021;-66
2022/05/21 12:02:56;;;;;;;11.82;1.70;;;41.20;18.60;;;;;;5025885;28;20021;-66
2022/05/21 12:05:49;;;;;;;5.88;1.48;;;41.80;18.70;;;;;;5026136;28;20021;-66
2022/05/21 12:08:36;;;;;;;9.52;1.60;;;42.10;18.60;;;;;;5018727;28;20116;-66
2022/05/21 12:11:34;;;;;;;5.22;1.40;;;42.40;18.10;;;;;;5017759;28;20035;-66
2022/05/21 12:14:13;;;;;;;6.53;1.33;;;42.50;17.80;;;;;;5030479;28;20120;-66
2022/05/21 12:16:42;;;;;;;7.30;1.30;;;42.50;17.80;;;;;;5022533;28;20456;-66
2022/05/21 12:19:08;;;;;;;5.45;1.15;;;42.60;17.90;;;;;;5018583;28;20034;-66
2022/05/21 12:21:35;;;;;;;5.03;1.40;;;42.60;17.70;;;;;;5027253;28;20061;-65
2022/05/21 12:24:29;;;;;;;5.07;1.20;;;40.60;19.30;;;;;;5013870;28;20489;-65
2022/05/21 12:27:02;;;;;;;5.90;1.30;;;40.20;19.20;;;;;;5027842;28;20061;-65
2022/05/21 12:29:39;;;;;;;5.60;1.20;;;40.70;18.70;;;;;;5030565;28;20041;-65
2022/05/21 12:32:05;;;;;;;6.25;1.40;;;41.20;18.40;;;;;;5028376;28;20037;-66
2022/05/21 12:34:54;;;;;;;5.65;1.20;;;41.40;17.70;;;;;;5032699;28;20053;-65
2022/05/21 12:37:30;;;;;;;5.30;1.33;;;41.40;17.20;;;;;;5025985;28;20125;-65
2022/05/21 12:40:04;;;;;;;5.57;1.27;;;41.30;17.60;;;;;;5032807;28;20037;-65
2022/05/21 12:43:01;;;;;;;5.35;1.25;;;41.40;17.70;;;;;;5028290;28;20563;-65
2022/05/21 12:45:40;;;;;;;4.72;1.20;;;41.60;17.50;;;;;;5014079;28;20072;-65
2022/05/21 12:48:39;;;;;;;6.13;1.23;;;41.90;16.90;;;;;;5012446;28;20071;-65
2022/05/21 12:51:08;;;;;;;4.13;1.00;;;41.90;17.50;;;;;;5022333;28;20112;-65
2022/05/21 12:53:42;;;;;;;4.50;1.10;;;41.70;17.20;;;;;;5028581;28;20053;-64
2022/05/21 12:56:32;;;;;;;6.22;1.35;;;41.40;16.80;;;;;;5023826;28;20040;-65
2022/05/21 12:59:15;;;;;;;6.32;1.10;;;41.40;17.60;;;;;;5018399;28;20140;-65
2022/05/21 13:02:08;;;;;;;6.95;1.25;;;41.40;17.60;;;;;;5016857;28;20029;-65
2022/05/21 13:04:41;;;;;;;5.10;1.20;;;41.60;17.50;;;;;;5027544;28;20025;-65
2022/05/21 13:07:12;;;;;;;6.85;1.02;;;41.70;17.60;;;;;;5025219;28;20441;-65
2022/05/21 13:09:53;;;;;;;5.50;1.17;;;41.60;17.30;;;;;;5026964;28;20075;-65
2022/05/21 13:12:19;;;;;;;5.03;1.10;;;41.60;17.30;;;;;;5010157;28;20496;-65
2022/05/21 13:14:48;;;;;;;5.15;1.20;;;41.50;17.20;;;;;;5013036;28;20569;-65
2022/05/21 13:17:45;;;;;;;4.43;1.00;;;41.30;17.20;;;;;;5018015;28;20030;-64
2022/05/21 13:21:05;;;;;;;5.53;1.30;;;41.00;17.90;;;;;;5022723;28;20045;-64
2022/05/21 13:24:06;;;;;;;3.38;0.90;;;40.30;18.40;;;;;;4985050;28;20045;-65
2022/05/21 13:26:35;;;;;;;5.60;1.00;;;39.50;19.60;;;;;;4987473;28;20065;-65
2022/05/21 13:29:21;;;;;;;4.22;1.30;;;39.00;20.40;;;;;;4985449;28;20038;-65
2022/05/21 13:31:51;;;;;;;4.43;1.10;;;38.50;20.70;;;;;;4985507;28;20050;-65
2022/05/21 13:34:21;;;;;;;3.63;1.17;;;37.90;20.90;;;;;;4985822;28;20097;-65
2022/05/21 13:36:51;;;;;;;;;;;37.40;21.50;;;;;;4970021;28;20104;-64
2022/05/21 13:39:29;;;;;;;4.18;1.10;;;37.00;22.00;;;;;;4986015;28;20924;-65
2022/05/21 13:42:01;;;;;;;5.50;1.20;;;36.70;22.10;;;;;;4986118;28;20082;-65
2022/05/21 13:44:28;;;;;;;5.30;1.25;;;36.60;22.20;;;;;;4986905;28;20119;-64